sensor_id;sensor_type;location;lat;lon;timestamp;temperature;humidity
75769;DHT22;64379;48.888;8.330;2023-04-16T00:00:41;8.20;87.50
75769;DHT22;64379;48.888;8.330;2023-04-16T00:03:07;8.20;87.50
75769;DHT22;64379;48.888;8.330;2023-04-16T00:05:32;8.20;87.50
75769;DHT22;64379;48.888;8.330;2023-04-16T00:07:58;8.30;87.50
75769;DHT22;64379;48.888;8.330;2023-04-16T00:10:23;8.30;87.40
75769;DHT22;64379;48.888;8.330;2023-04-16T00:12:49;8.30;87.40
75769;DHT22;64379;48.888;8.330;2023-04-16T00:15:15;8.30;87.40
75769;DHT22;64379;48.888;8.330;2023-04-16T00:17:40;8.30;87.20
75769;DHT22;64379;48.888;8.330;2023-04-16T00:20:06;8.30;87.20
75769;DHT22;64379;48.888;8.330;2023-04-16T00:22:33;8.30;87.10
75769;DHT22;64379;48.888;8.330;2023-04-16T00:24:58;8.30;87.10
75769;DHT22;64379;48.888;8.330;2023-04-16T00:27:24;8.30;87.10
75769;DHT22;64379;48.888;8.330;2023-04-16T00:29:50;8.20;87.30
75769;DHT22;64379;48.888;8.330;2023-04-16T00:32:15;8.20;87.40
75769;DHT22;64379;48.888;8.330;2023-04-16T00:34:41;8.20;87.30
75769;DHT22;64379;48.888;8.330;2023-04-16T00:37:07;8.20;87.20
75769;DHT22;64379;48.888;8.330;2023-04-16T00:39:32;8.30;87.20
75769;DHT22;64379;48.888;8.330;2023-04-16T00:41:58;8.30;87.20
75769;DHT22;64379;48.888;8.330;2023-04-16T00:44:23;8.30;87.20
75769;DHT22;64379;48.888;8.330;2023-04-16T00:46:50;8.20;87.20
75769;DHT22;64379;48.888;8.330;2023-04-16T00:49:16;8.30;87.20
75769;DHT22;64379;48.888;8.330;2023-04-16T00:51:41;8.30;87.20
75769;DHT22;64379;48.888;8.330;2023-04-16T00:54:07;8.20;87.30
75769;DHT22;64379;48.888;8.330;2023-04-16T00:56:34;8.20;87.30
75769;DHT22;64379;48.888;8.330;2023-04-16T00:59:00;8.20;87.40
75769;DHT22;64379;48.888;8.330;2023-04-16T01:01:26;8.20;87.50
75769;DHT22;64379;48.888;8.330;2023-04-16T01:03:51;8.20;87.50
75769;DHT22;64379;48.888;8.330;2023-04-16T01:06:17;8.20;87.60
75769;DHT22;64379;48.888;8.330;2023-04-16T01:08:43;8.20;87.70
75769;DHT22;64379;48.888;8.330;2023-04-16T01:11:10;8.20;87.80
75769;DHT22;64379;48.888;8.330;2023-04-16T01:13:36;8.10;87.80
75769;DHT22;64379;48.888;8.330;2023-04-16T01:16:05;8.10;87.90
75769;DHT22;64379;48.888;8.330;2023-04-16T01:18:32;8.10;88.00
75769;DHT22;64379;48.888;8.330;2023-04-16T01:20:57;8.10;88.00
75769;DHT22;64379;48.888;8.330;2023-04-16T01:23:23;8.20;88.00
75769;DHT22;64379;48.888;8.330;2023-04-16T01:25:48;8.10;88.00
75769;DHT22;64379;48.888;8.330;2023-04-16T01:28:14;8.10;88.00
75769;DHT22;64379;48.888;8.330;2023-04-16T01:30:40;8.10;88.10
75769;DHT22;64379;48.888;8.330;2023-04-16T01:33:07;8.10;88.10
75769;DHT22;64379;48.888;8.330;2023-04-16T01:35:33;8.10;88.10
75769;DHT22;64379;48.888;8.330;2023-04-16T01:37:59;8.10;88.20
75769;DHT22;64379;48.888;8.330;2023-04-16T01:40:24;8.10;88.20
75769;DHT22;64379;48.888;8.330;2023-04-16T01:42:50;8.10;88.20
75769;DHT22;64379;48.888;8.330;2023-04-16T01:45:16;8.10;88.20
75769;DHT22;64379;48.888;8.330;2023-04-16T01:47:41;8.10;88.10
75769;DHT22;64379;48.888;8.330;2023-04-16T01:50:08;8.10;88.00
75769;DHT22;64379;48.888;8.330;2023-04-16T01:52:34;8.20;88.00
75769;DHT22;64379;48.888;8.330;2023-04-16T01:54:59;8.10;87.90
75769;DHT22;64379;48.888;8.330;2023-04-16T01:57:25;8.20;87.90
75769;DHT22;64379;48.888;8.330;2023-04-16T01:59:50;8.20;87.90
75769;DHT22;64379;48.888;8.330;2023-04-16T02:02:16;8.10;87.90
75769;DHT22;64379;48.888;8.330;2023-04-16T02:04:43;8.10;87.80
75769;DHT22;64379;48.888;8.330;2023-04-16T02:07:10;8.10;87.90
75769;DHT22;64379;48.888;8.330;2023-04-16T02:09:39;8.20;87.90
75769;DHT22;64379;48.888;8.330;2023-04-16T02:12:06;8.20;87.90
75769;DHT22;64379;48.888;8.330;2023-04-16T02:14:32;8.10;87.90
75769;DHT22;64379;48.888;8.330;2023-04-16T02:16:58;8.10;87.90
75769;DHT22;64379;48.888;8.330;2023-04-16T02:19:24;8.10;87.80
75769;DHT22;64379;48.888;8.330;2023-04-16T02:21:50;8.10;87.80
75769;DHT22;64379;48.888;8.330;2023-04-16T02:24:16;8.20;87.70
75769;DHT22;64379;48.888;8.330;2023-04-16T02:26:42;8.10;87.70
75769;DHT22;64379;48.888;8.330;2023-04-16T02:29:08;8.10;87.60
75769;DHT22;64379;48.888;8.330;2023-04-16T02:31:34;8.10;87.70
75769;DHT22;64379;48.888;8.330;2023-04-16T02:34:00;8.10;87.80
75769;DHT22;64379;48.888;8.330;2023-04-16T02:36:25;8.10;87.70
75769;DHT22;64379;48.888;8.330;2023-04-16T02:38:51;8.10;87.80
75769;DHT22;64379;48.888;8.330;2023-04-16T02:41:17;8.10;87.80
75769;DHT22;64379;48.888;8.330;2023-04-16T02:43:43;8.10;87.90
75769;DHT22;64379;48.888;8.330;2023-04-16T02:46:08;8.10;87.90
75769;DHT22;64379;48.888;8.330;2023-04-16T02:48:34;8.00;87.90
75769;DHT22;64379;48.888;8.330;2023-04-16T02:51:00;8.10;88.00
75769;DHT22;64379;48.888;8.330;2023-04-16T02:53:25;8.00;88.00
75769;DHT22;64379;48.888;8.330;2023-04-16T02:55:52;8.00;88.00
75769;DHT22;64379;48.888;8.330;2023-04-16T02:58:23;8.00;88.00
75769;DHT22;64379;48.888;8.330;2023-04-16T03:00:50;8.00;87.90
75769;DHT22;64379;48.888;8.330;2023-04-16T03:03:15;8.00;88.00
75769;DHT22;64379;48.888;8.330;2023-04-16T03:05:41;8.10;88.00
75769;DHT22;64379;48.888;8.330;2023-04-16T03:08:07;8.10;88.00
75769;DHT22;64379;48.888;8.330;2023-04-16T03:10:32;8.10;87.90
75769;DHT22;64379;48.888;8.330;2023-04-16T03:12:59;8.10;87.90
75769;DHT22;64379;48.888;8.330;2023-04-16T03:15:25;8.10;87.80
75769;DHT22;64379;48.888;8.330;2023-04-16T03:17:51;8.10;87.80
75769;DHT22;64379;48.888;8.330;2023-04-16T03:20:17;8.10;87.70
75769;DHT22;64379;48.888;8.330;2023-04-16T03:22:45;8.10;87.60
75769;DHT22;64379;48.888;8.330;2023-04-16T03:25:10;8.10;87.70
75769;DHT22;64379;48.888;8.330;2023-04-16T03:27:36;8.10;87.70
75769;DHT22;64379;48.888;8.330;2023-04-16T03:30:07;8.10;87.70
75769;DHT22;64379;48.888;8.330;2023-04-16T03:32:35;8.10;87.60
75769;DHT22;64379;48.888;8.330;2023-04-16T03:35:05;8.10;87.60
75769;DHT22;64379;48.888;8.330;2023-04-16T03:37:32;8.10;87.60
75769;DHT22;64379;48.888;8.330;2023-04-16T03:39:57;8.20;87.50
75769;DHT22;64379;48.888;8.330;2023-04-16T03:42:23;8.10;87.50
75769;DHT22;64379;48.888;8.330;2023-04-16T03:44:49;8.20;87.30
75769;DHT22;64379;48.888;8.330;2023-04-16T03:47:14;8.20;87.30
75769;DHT22;64379;48.888;8.330;2023-04-16T03:49:40;8.20;87.30
75769;DHT22;64379;48.888;8.330;2023-04-16T03:52:06;8.20;87.20
75769;DHT22;64379;48.888;8.330;2023-04-16T03:54:31;8.20;87.10
75769;DHT22;64379;48.888;8.330;2023-04-16T03:56:57;8.10;86.90
75769;DHT22;64379;48.888;8.330;2023-04-16T03:59:22;8.10;86.80
75769;DHT22;64379;48.888;8.330;2023-04-16T04:01:48;8.10;86.80
75769;DHT22;64379;48.888;8.330;2023-04-16T04:04:14;8.20;86.80
75769;DHT22;64379;48.888;8.330;2023-04-16T04:06:39;8.20;86.70
75769;DHT22;64379;48.888;8.330;2023-04-16T04:09:05;8.20;86.70
75769;DHT22;64379;48.888;8.330;2023-04-16T04:11:31;8.20;86.60
75769;DHT22;64379;48.888;8.330;2023-04-16T04:13:57;8.30;86.50
75769;DHT22;64379;48.888;8.330;2023-04-16T04:16:22;8.30;86.40
75769;DHT22;64379;48.888;8.330;2023-04-16T04:18:48;8.20;86.20
75769;DHT22;64379;48.888;8.330;2023-04-16T04:21:13;8.20;86.40
75769;DHT22;64379;48.888;8.330;2023-04-16T04:23:39;8.20;86.50
75769;DHT22;64379;48.888;8.330;2023-04-16T04:26:06;8.20;86.50
75769;DHT22;64379;48.888;8.330;2023-04-16T04:28:33;8.20;86.60
75769;DHT22;64379;48.888;8.330;2023-04-16T04:30:59;8.20;86.60
75769;DHT22;64379;48.888;8.330;2023-04-16T04:33:25;8.20;86.70
75769;DHT22;64379;48.888;8.330;2023-04-16T04:35:52;8.30;86.60
75769;DHT22;64379;48.888;8.330;2023-04-16T04:38:17;8.30;86.50
75769;DHT22;64379;48.888;8.330;2023-04-16T04:40:46;8.30;86.40
75769;DHT22;64379;48.888;8.330;2023-04-16T04:43:12;8.30;86.40
75769;DHT22;64379;48.888;8.330;2023-04-16T04:45:38;8.30;86.50
75769;DHT22;64379;48.888;8.330;2023-04-16T04:48:03;8.20;86.60
75769;DHT22;64379;48.888;8.330;2023-04-16T04:50:29;8.20;86.70
75769;DHT22;64379;48.888;8.330;2023-04-16T04:52:55;8.20;86.70
75769;DHT22;64379;48.888;8.330;2023-04-16T04:55:20;8.30;86.50
75769;DHT22;64379;48.888;8.330;2023-04-16T04:57:47;8.30;86.50
75769;DHT22;64379;48.888;8.330;2023-04-16T05:00:13;8.30;86.50
75769;DHT22;64379;48.888;8.330;2023-04-16T05:02:38;8.20;86.60
75769;DHT22;64379;48.888;8.330;2023-04-16T05:05:04;8.20;86.60
75769;DHT22;64379;48.888;8.330;2023-04-16T05:07:30;8.20;86.60
75769;DHT22;64379;48.888;8.330;2023-04-16T05:09:56;8.10;86.70
75769;DHT22;64379;48.888;8.330;2023-04-16T05:12:21;8.10;86.70
75769;DHT22;64379;48.888;8.330;2023-04-16T05:14:47;8.10;86.70
75769;DHT22;64379;48.888;8.330;2023-04-16T05:17:13;8.20;86.80
75769;DHT22;64379;48.888;8.330;2023-04-16T05:19:38;8.20;86.80
75769;DHT22;64379;48.888;8.330;2023-04-16T05:22:04;8.30;86.70
75769;DHT22;64379;48.888;8.330;2023-04-16T05:24:30;8.30;86.50
75769;DHT22;64379;48.888;8.330;2023-04-16T05:26:56;8.40;86.30
75769;DHT22;64379;48.888;8.330;2023-04-16T05:29:21;8.40;86.10
75769;DHT22;64379;48.888;8.330;2023-04-16T05:31:47;8.50;85.90
75769;DHT22;64379;48.888;8.330;2023-04-16T05:34:12;8.50;85.70
75769;DHT22;64379;48.888;8.330;2023-04-16T05:36:38;8.50;85.50
75769;DHT22;64379;48.888;8.330;2023-04-16T05:39:04;8.60;85.40
75769;DHT22;64379;48.888;8.330;2023-04-16T05:41:33;8.60;85.30
75769;DHT22;64379;48.888;8.330;2023-04-16T05:43:59;8.60;85.30
75769;DHT22;64379;48.888;8.330;2023-04-16T05:46:24;8.60;85.30
75769;DHT22;64379;48.888;8.330;2023-04-16T05:48:50;8.60;85.30
75769;DHT22;64379;48.888;8.330;2023-04-16T05:51:16;8.60;85.30
75769;DHT22;64379;48.888;8.330;2023-04-16T05:53:44;8.60;85.20
75769;DHT22;64379;48.888;8.330;2023-04-16T05:56:13;8.70;85.40
75769;DHT22;64379;48.888;8.330;2023-04-16T05:58:39;8.70;85.20
75769;DHT22;64379;48.888;8.330;2023-04-16T06:01:05;8.60;85.10
75769;DHT22;64379;48.888;8.330;2023-04-16T06:03:31;8.60;85.10
75769;DHT22;64379;48.888;8.330;2023-04-16T06:05:57;8.60;85.30
75769;DHT22;64379;48.888;8.330;2023-04-16T06:08:22;8.70;85.40
75769;DHT22;64379;48.888;8.330;2023-04-16T06:10:48;8.80;85.20
75769;DHT22;64379;48.888;8.330;2023-04-16T06:13:14;8.80;85.10
75769;DHT22;64379;48.888;8.330;2023-04-16T06:15:39;8.90;84.80
75769;DHT22;64379;48.888;8.330;2023-04-16T06:18:05;8.90;84.50
75769;DHT22;64379;48.888;8.330;2023-04-16T06:20:30;8.90;83.70
75769;DHT22;64379;48.888;8.330;2023-04-16T06:22:56;8.90;83.70
75769;DHT22;64379;48.888;8.330;2023-04-16T06:25:22;8.90;83.80
75769;DHT22;64379;48.888;8.330;2023-04-16T06:27:48;8.90;83.70
75769;DHT22;64379;48.888;8.330;2023-04-16T06:30:14;8.90;83.60
75769;DHT22;64379;48.888;8.330;2023-04-16T06:32:41;8.90;83.60
75769;DHT22;64379;48.888;8.330;2023-04-16T06:35:08;8.80;83.80
75769;DHT22;64379;48.888;8.330;2023-04-16T06:37:33;8.80;84.10
75769;DHT22;64379;48.888;8.330;2023-04-16T06:39:59;8.80;84.20
75769;DHT22;64379;48.888;8.330;2023-04-16T06:42:25;8.80;84.00
75769;DHT22;64379;48.888;8.330;2023-04-16T06:44:51;8.80;83.30
75769;DHT22;64379;48.888;8.330;2023-04-16T06:47:16;8.80;82.80
75769;DHT22;64379;48.888;8.330;2023-04-16T06:49:42;8.90;82.80
75769;DHT22;64379;48.888;8.330;2023-04-16T06:52:07;9.00;82.30
75769;DHT22;64379;48.888;8.330;2023-04-16T06:54:33;8.90;81.60
75769;DHT22;64379;48.888;8.330;2023-04-16T06:56:59;8.90;81.70
75769;DHT22;64379;48.888;8.330;2023-04-16T06:59:24;9.00;81.50
75769;DHT22;64379;48.888;8.330;2023-04-16T07:01:51;9.00;81.10
75769;DHT22;64379;48.888;8.330;2023-04-16T07:04:16;9.00;80.20
75769;DHT22;64379;48.888;8.330;2023-04-16T07:06:42;9.10;80.40
75769;DHT22;64379;48.888;8.330;2023-04-16T07:09:08;9.00;80.30
75769;DHT22;64379;48.888;8.330;2023-04-16T07:11:33;9.00;80.70
75769;DHT22;64379;48.888;8.330;2023-04-16T07:13:59;9.20;80.90
75769;DHT22;64379;48.888;8.330;2023-04-16T07:16:25;9.20;80.20
75769;DHT22;64379;48.888;8.330;2023-04-16T07:18:51;9.40;79.70
75769;DHT22;64379;48.888;8.330;2023-04-16T07:21:17;9.40;78.90
75769;DHT22;64379;48.888;8.330;2023-04-16T07:23:42;9.50;78.50
75769;DHT22;64379;48.888;8.330;2023-04-16T07:26:08;9.50;78.30
75769;DHT22;64379;48.888;8.330;2023-04-16T07:28:33;9.60;77.50
75769;DHT22;64379;48.888;8.330;2023-04-16T07:30:59;9.60;77.20
75769;DHT22;64379;48.888;8.330;2023-04-16T07:33:25;9.60;77.40
75769;DHT22;64379;48.888;8.330;2023-04-16T07:35:51;9.50;78.60
75769;DHT22;64379;48.888;8.330;2023-04-16T07:38:16;9.50;79.60
75769;DHT22;64379;48.888;8.330;2023-04-16T07:40:42;9.50;78.10
75769;DHT22;64379;48.888;8.330;2023-04-16T07:43:08;9.50;77.70
75769;DHT22;64379;48.888;8.330;2023-04-16T07:45:34;9.40;78.00
75769;DHT22;64379;48.888;8.330;2023-04-16T07:47:59;9.40;78.20
75769;DHT22;64379;48.888;8.330;2023-04-16T07:50:25;9.40;78.20
75769;DHT22;64379;48.888;8.330;2023-04-16T07:52:51;9.40;78.50
75769;DHT22;64379;48.888;8.330;2023-04-16T07:55:16;9.40;78.70
75769;DHT22;64379;48.888;8.330;2023-04-16T07:57:42;9.30;78.80
75769;DHT22;64379;48.888;8.330;2023-04-16T08:00:08;9.40;78.30
75769;DHT22;64379;48.888;8.330;2023-04-16T08:02:34;9.50;78.00
75769;DHT22;64379;48.888;8.330;2023-04-16T08:05:00;9.50;78.60
75769;DHT22;64379;48.888;8.330;2023-04-16T08:07:26;9.60;78.00
75769;DHT22;64379;48.888;8.330;2023-04-16T08:09:52;9.60;78.10
75769;DHT22;64379;48.888;8.330;2023-04-16T08:12:17;9.50;78.20
75769;DHT22;64379;48.888;8.330;2023-04-16T08:14:44;9.40;78.30
75769;DHT22;64379;48.888;8.330;2023-04-16T08:17:14;9.30;79.10
75769;DHT22;64379;48.888;8.330;2023-04-16T08:19:40;9.20;80.10
75769;DHT22;64379;48.888;8.330;2023-04-16T08:22:06;9.20;80.50
75769;DHT22;64379;48.888;8.330;2023-04-16T08:24:31;9.20;80.60
75769;DHT22;64379;48.888;8.330;2023-04-16T08:26:57;9.20;80.60
75769;DHT22;64379;48.888;8.330;2023-04-16T08:29:22;9.10;80.70
75769;DHT22;64379;48.888;8.330;2023-04-16T08:31:52;9.00;81.00
75769;DHT22;64379;48.888;8.330;2023-04-16T08:34:18;9.00;80.90
75769;DHT22;64379;48.888;8.330;2023-04-16T08:36:43;9.10;81.10
75769;DHT22;64379;48.888;8.330;2023-04-16T08:39:10;9.20;81.10
75769;DHT22;64379;48.888;8.330;2023-04-16T08:41:37;9.20;81.20
75769;DHT22;64379;48.888;8.330;2023-04-16T08:44:07;9.20;81.10
75769;DHT22;64379;48.888;8.330;2023-04-16T08:46:36;9.30;81.10
75769;DHT22;64379;48.888;8.330;2023-04-16T08:49:05;9.40;81.10
75769;DHT22;64379;48.888;8.330;2023-04-16T08:51:34;9.40;81.30
75769;DHT22;64379;48.888;8.330;2023-04-16T08:54:03;9.40;81.00
75769;DHT22;64379;48.888;8.330;2023-04-16T08:56:30;9.40;80.90
75769;DHT22;64379;48.888;8.330;2023-04-16T08:58:56;9.40;80.70
75769;DHT22;64379;48.888;8.330;2023-04-16T09:01:24;9.40;80.70
75769;DHT22;64379;48.888;8.330;2023-04-16T09:03:51;9.40;80.90
75769;DHT22;64379;48.888;8.330;2023-04-16T09:06:18;9.40;80.50
75769;DHT22;64379;48.888;8.330;2023-04-16T09:08:44;9.40;80.50
75769;DHT22;64379;48.888;8.330;2023-04-16T09:11:12;9.50;79.80
75769;DHT22;64379;48.888;8.330;2023-04-16T09:13:38;9.70;80.00
75769;DHT22;64379;48.888;8.330;2023-04-16T09:16:06;9.60;78.90
75769;DHT22;64379;48.888;8.330;2023-04-16T09:18:32;9.70;79.50
75769;DHT22;64379;48.888;8.330;2023-04-16T09:20:58;9.90;78.90
75769;DHT22;64379;48.888;8.330;2023-04-16T09:23:24;9.80;78.10
75769;DHT22;64379;48.888;8.330;2023-04-16T09:25:50;9.90;78.40
75769;DHT22;64379;48.888;8.330;2023-04-16T09:28:41;9.90;78.10
75769;DHT22;64379;48.888;8.330;2023-04-16T09:33:37;9.90;78.10
75769;DHT22;64379;48.888;8.330;2023-04-16T09:36:04;10.00;79.00
75769;DHT22;64379;48.888;8.330;2023-04-16T09:38:50;10.00;78.20
75769;DHT22;64379;48.888;8.330;2023-04-16T09:41:17;10.10;75.20
75769;DHT22;64379;48.888;8.330;2023-04-16T09:44:09;10.30;75.70
75769;DHT22;64379;48.888;8.330;2023-04-16T09:46:37;10.20;76.20
75769;DHT22;64379;48.888;8.330;2023-04-16T09:49:08;10.10;77.70
75769;DHT22;64379;48.888;8.330;2023-04-16T09:51:40;10.00;77.50
75769;DHT22;64379;48.888;8.330;2023-04-16T09:54:06;10.00;77.70
75769;DHT22;64379;48.888;8.330;2023-04-16T09:56:32;9.80;78.30
75769;DHT22;64379;48.888;8.330;2023-04-16T09:59:01;9.80;78.60
75769;DHT22;64379;48.888;8.330;2023-04-16T10:01:27;9.80;78.90
75769;DHT22;64379;48.888;8.330;2023-04-16T10:03:54;9.70;78.70
75769;DHT22;64379;48.888;8.330;2023-04-16T10:06:22;9.70;78.90
75769;DHT22;64379;48.888;8.330;2023-04-16T10:08:51;9.70;79.60
75769;DHT22;64379;48.888;8.330;2023-04-16T10:11:19;9.70;79.60
75769;DHT22;64379;48.888;8.330;2023-04-16T10:13:45;9.70;79.70
75769;DHT22;64379;48.888;8.330;2023-04-16T10:16:11;9.60;80.40
75769;DHT22;64379;48.888;8.330;2023-04-16T10:18:39;9.60;80.50
75769;DHT22;64379;48.888;8.330;2023-04-16T10:21:06;9.60;80.10
75769;DHT22;64379;48.888;8.330;2023-04-16T10:23:33;9.80;77.50
75769;DHT22;64379;48.888;8.330;2023-04-16T10:26:00;10.00;76.50
75769;DHT22;64379;48.888;8.330;2023-04-16T10:28:26;10.20;76.00
75769;DHT22;64379;48.888;8.330;2023-04-16T10:30:55;10.50;75.10
75769;DHT22;64379;48.888;8.330;2023-04-16T10:33:23;10.70;74.20
75769;DHT22;64379;48.888;8.330;2023-04-16T10:35:50;10.70;72.50
75769;DHT22;64379;48.888;8.330;2023-04-16T10:38:25;10.80;73.20
75769;DHT22;64379;48.888;8.330;2023-04-16T10:41:11;10.80;75.70
75769;DHT22;64379;48.888;8.330;2023-04-16T10:43:43;10.70;76.60
75769;DHT22;64379;48.888;8.330;2023-04-16T10:46:32;10.60;77.00
75769;DHT22;64379;48.888;8.330;2023-04-16T10:49:02;10.60;76.90
75769;DHT22;64379;48.888;8.330;2023-04-16T10:51:35;10.60;77.30
75769;DHT22;64379;48.888;8.330;2023-04-16T10:54:30;10.60;76.90
75769;DHT22;64379;48.888;8.330;2023-04-16T10:57:04;10.70;76.70
75769;DHT22;64379;48.888;8.330;2023-04-16T10:59:35;10.90;75.30
75769;DHT22;64379;48.888;8.330;2023-04-16T11:02:06;10.40;74.00
75769;DHT22;64379;48.888;8.330;2023-04-16T11:04:34;10.00;74.30
75769;DHT22;64379;48.888;8.330;2023-04-16T11:07:02;9.80;76.00
75769;DHT22;64379;48.888;8.330;2023-04-16T11:09:57;9.90;76.50
75769;DHT22;64379;48.888;8.330;2023-04-16T11:12:42;10.00;75.90
75769;DHT22;64379;48.888;8.330;2023-04-16T11:15:16;10.00;75.00
75769;DHT22;64379;48.888;8.330;2023-04-16T11:17:50;9.90;75.00
75769;DHT22;64379;48.888;8.330;2023-04-16T11:20:23;9.90;74.90
75769;DHT22;64379;48.888;8.330;2023-04-16T11:22:49;10.00;75.50
75769;DHT22;64379;48.888;8.330;2023-04-16T11:25:23;10.20;75.80
75769;DHT22;64379;48.888;8.330;2023-04-16T11:27:50;10.20;76.20
75769;DHT22;64379;48.888;8.330;2023-04-16T11:30:16;10.30;74.70
75769;DHT22;64379;48.888;8.330;2023-04-16T11:32:43;10.40;73.50
75769;DHT22;64379;48.888;8.330;2023-04-16T11:35:16;10.40;74.00
75769;DHT22;64379;48.888;8.330;2023-04-16T11:37:43;10.40;74.10
75769;DHT22;64379;48.888;8.330;2023-04-16T11:40:10;10.40;74.00
75769;DHT22;64379;48.888;8.330;2023-04-16T11:42:36;10.40;74.10
75769;DHT22;64379;48.888;8.330;2023-04-16T11:45:03;10.40;74.40
75769;DHT22;64379;48.888;8.330;2023-04-16T11:47:29;10.10;75.20
75769;DHT22;64379;48.888;8.330;2023-04-16T11:49:56;10.00;75.70
75769;DHT22;64379;48.888;8.330;2023-04-16T11:52:30;9.90;75.50
75769;DHT22;64379;48.888;8.330;2023-04-16T11:54:56;9.80;76.80
75769;DHT22;64379;48.888;8.330;2023-04-16T11:57:27;9.70;76.70
75769;DHT22;64379;48.888;8.330;2023-04-16T11:59:54;9.60;77.70
75769;DHT22;64379;48.888;8.330;2023-04-16T12:02:48;9.50;79.20
75769;DHT22;64379;48.888;8.330;2023-04-16T12:05:30;9.40;79.60
75769;DHT22;64379;48.888;8.330;2023-04-16T12:08:02;9.50;80.10
75769;DHT22;64379;48.888;8.330;2023-04-16T12:10:29;9.40;80.00
75769;DHT22;64379;48.888;8.330;2023-04-16T12:13:15;9.60;81.10
75769;DHT22;64379;48.888;8.330;2023-04-16T12:18:14;9.80;79.90
75769;DHT22;64379;48.888;8.330;2023-04-16T12:20:41;9.70;80.00
75769;DHT22;64379;48.888;8.330;2023-04-16T12:23:08;9.70;80.30
75769;DHT22;64379;48.888;8.330;2023-04-16T12:25:34;9.70;81.00
75769;DHT22;64379;48.888;8.330;2023-04-16T12:28:00;9.70;81.20
75769;DHT22;64379;48.888;8.330;2023-04-16T12:30:26;9.80;80.70
75769;DHT22;64379;48.888;8.330;2023-04-16T12:33:13;10.00;80.90
75769;DHT22;64379;48.888;8.330;2023-04-16T12:35:41;9.70;79.80
75769;DHT22;64379;48.888;8.330;2023-04-16T12:38:08;9.60;81.00
75769;DHT22;64379;48.888;8.330;2023-04-16T12:40:34;9.50;81.20
75769;DHT22;64379;48.888;8.330;2023-04-16T12:43:00;9.50;80.50
75769;DHT22;64379;48.888;8.330;2023-04-16T12:45:27;9.60;81.10
75769;DHT22;64379;48.888;8.330;2023-04-16T12:47:52;9.80;81.40
75769;DHT22;64379;48.888;8.330;2023-04-16T12:50:18;10.10;79.70
75769;DHT22;64379;48.888;8.330;2023-04-16T12:52:44;10.00;78.90
75769;DHT22;64379;48.888;8.330;2023-04-16T12:55:10;9.60;81.20
75769;DHT22;64379;48.888;8.330;2023-04-16T12:57:36;9.50;81.70
75769;DHT22;64379;48.888;8.330;2023-04-16T13:00:01;9.40;81.50
75769;DHT22;64379;48.888;8.330;2023-04-16T13:02:30;9.50;81.50
75769;DHT22;64379;48.888;8.330;2023-04-16T13:04:56;9.50;81.90
75769;DHT22;64379;48.888;8.330;2023-04-16T13:07:22;9.40;81.20
75769;DHT22;64379;48.888;8.330;2023-04-16T13:09:49;9.60;81.90
75769;DHT22;64379;48.888;8.330;2023-04-16T13:12:15;9.80;82.50
75769;DHT22;64379;48.888;8.330;2023-04-16T13:14:40;10.20;82.40
75769;DHT22;64379;48.888;8.330;2023-04-16T13:17:06;10.40;81.50
75769;DHT22;64379;48.888;8.330;2023-04-16T13:19:32;10.70;80.60
75769;DHT22;64379;48.888;8.330;2023-04-16T13:21:57;10.70;79.30
75769;DHT22;64379;48.888;8.330;2023-04-16T13:24:23;10.20;79.30
75769;DHT22;64379;48.888;8.330;2023-04-16T13:26:49;10.10;80.50
75769;DHT22;64379;48.888;8.330;2023-04-16T13:29:17;10.10;80.40
75769;DHT22;64379;48.888;8.330;2023-04-16T13:31:42;10.00;81.00
75769;DHT22;64379;48.888;8.330;2023-04-16T13:34:08;9.80;81.20
75769;DHT22;64379;48.888;8.330;2023-04-16T13:36:33;9.60;81.20
75769;DHT22;64379;48.888;8.330;2023-04-16T13:38:59;9.50;81.80
75769;DHT22;64379;48.888;8.330;2023-04-16T13:41:25;9.50;82.50
75769;DHT22;64379;48.888;8.330;2023-04-16T13:43:51;9.50;83.00
75769;DHT22;64379;48.888;8.330;2023-04-16T13:46:16;9.50;82.70
75769;DHT22;64379;48.888;8.330;2023-04-16T13:48:43;9.40;83.00
75769;DHT22;64379;48.888;8.330;2023-04-16T13:51:09;9.50;83.60
75769;DHT22;64379;48.888;8.330;2023-04-16T13:53:35;9.60;83.70
75769;DHT22;64379;48.888;8.330;2023-04-16T13:56:00;9.50;83.70
75769;DHT22;64379;48.888;8.330;2023-04-16T13:58:28;9.70;83.90
75769;DHT22;64379;48.888;8.330;2023-04-16T14:00:53;9.70;83.30
75769;DHT22;64379;48.888;8.330;2023-04-16T14:03:19;9.70;83.70
75769;DHT22;64379;48.888;8.330;2023-04-16T14:05:45;9.80;83.60
75769;DHT22;64379;48.888;8.330;2023-04-16T14:08:10;9.80;82.90
75769;DHT22;64379;48.888;8.330;2023-04-16T14:10:39;9.80;82.80
75769;DHT22;64379;48.888;8.330;2023-04-16T14:13:04;9.80;82.50
75769;DHT22;64379;48.888;8.330;2023-04-16T14:15:30;9.70;82.80
75769;DHT22;64379;48.888;8.330;2023-04-16T14:17:56;9.70;83.40
75769;DHT22;64379;48.888;8.330;2023-04-16T14:20:21;9.60;84.00
75769;DHT22;64379;48.888;8.330;2023-04-16T14:22:47;9.70;84.30
75769;DHT22;64379;48.888;8.330;2023-04-16T14:25:12;9.80;83.80
75769;DHT22;64379;48.888;8.330;2023-04-16T14:27:38;9.70;83.60
75769;DHT22;64379;48.888;8.330;2023-04-16T14:30:05;9.70;83.40
75769;DHT22;64379;48.888;8.330;2023-04-16T14:32:31;9.60;83.70
75769;DHT22;64379;48.888;8.330;2023-04-16T14:34:57;9.60;84.40
75769;DHT22;64379;48.888;8.330;2023-04-16T14:37:23;9.70;84.70
75769;DHT22;64379;48.888;8.330;2023-04-16T14:39:49;9.60;84.60
75769;DHT22;64379;48.888;8.330;2023-04-16T14:42:15;9.50;84.80
75769;DHT22;64379;48.888;8.330;2023-04-16T14:44:41;9.50;85.10
75769;DHT22;64379;48.888;8.330;2023-04-16T14:47:06;9.40;85.50
75769;DHT22;64379;48.888;8.330;2023-04-16T14:49:33;9.40;85.70
75769;DHT22;64379;48.888;8.330;2023-04-16T14:51:59;9.40;86.00
75769;DHT22;64379;48.888;8.330;2023-04-16T14:54:26;9.40;86.20
75769;DHT22;64379;48.888;8.330;2023-04-16T14:56:52;9.40;86.30
75769;DHT22;64379;48.888;8.330;2023-04-16T14:59:18;9.40;86.30
75769;DHT22;64379;48.888;8.330;2023-04-16T15:01:44;9.40;86.30
75769;DHT22;64379;48.888;8.330;2023-04-16T15:04:10;9.40;86.10
75769;DHT22;64379;48.888;8.330;2023-04-16T15:06:36;9.50;86.20
75769;DHT22;64379;48.888;8.330;2023-04-16T15:09:02;9.50;86.10
75769;DHT22;64379;48.888;8.330;2023-04-16T15:11:28;9.50;86.10
75769;DHT22;64379;48.888;8.330;2023-04-16T15:13:54;9.50;86.00
75769;DHT22;64379;48.888;8.330;2023-04-16T15:16:20;9.50;85.90
75769;DHT22;64379;48.888;8.330;2023-04-16T15:18:46;9.50;85.70
75769;DHT22;64379;48.888;8.330;2023-04-16T15:21:12;9.50;85.70
75769;DHT22;64379;48.888;8.330;2023-04-16T15:23:38;9.40;85.70
75769;DHT22;64379;48.888;8.330;2023-04-16T15:26:03;9.40;85.80
75769;DHT22;64379;48.888;8.330;2023-04-16T15:28:30;9.40;85.80
75769;DHT22;64379;48.888;8.330;2023-04-16T15:30:56;9.40;86.10
75769;DHT22;64379;48.888;8.330;2023-04-16T15:33:22;9.40;86.20
75769;DHT22;64379;48.888;8.330;2023-04-16T15:35:48;9.40;86.10
75769;DHT22;64379;48.888;8.330;2023-04-16T15:38:16;9.40;86.10
75769;DHT22;64379;48.888;8.330;2023-04-16T15:40:41;9.40;86.30
75769;DHT22;64379;48.888;8.330;2023-04-16T15:43:07;9.40;86.30
75769;DHT22;64379;48.888;8.330;2023-04-16T15:45:33;9.50;86.40
75769;DHT22;64379;48.888;8.330;2023-04-16T15:47:59;9.50;86.40